createdAt,value
2023-03-07T00:00:15.399Z,11.50
2023-03-07T00:02:42.367Z,16.75
2023-03-07T00:05:12.296Z,12.50
2023-03-07T00:07:39.327Z,12.25
2023-03-07T00:10:08.029Z,11.00
2023-03-07T00:12:35.187Z,13.25
2023-03-07T00:15:03.941Z,11.00
2023-03-07T00:17:30.828Z,9.00
2023-03-07T00:19:57.714Z,15.25
2023-03-07T00:22:24.833Z,13.25
2023-03-07T00:24:51.623Z,13.25
2023-03-07T00:27:18.507Z,14.50
2023-03-07T00:29:45.293Z,14.50
2023-03-07T00:32:13.541Z,8.50
2023-03-07T00:34:40.353Z,16.25
2023-03-07T00:37:07.200Z,12.75
2023-03-07T00:42:00.470Z,13.00
2023-03-07T00:44:27.439Z,11.00
2023-03-07T00:46:54.256Z,12.25
2023-03-07T00:49:22.648Z,9.50
2023-03-07T00:51:49.547Z,14.75
2023-03-07T00:54:16.652Z,11.00
2023-03-07T00:56:44.045Z,11.75
2023-03-07T00:59:10.989Z,10.75
2023-03-07T01:01:38.384Z,11.00
2023-03-07T01:04:05.467Z,12.75
2023-03-07T01:06:34.997Z,10.25
2023-03-07T01:09:05.892Z,11.25
2023-03-07T01:11:34.951Z,12.75
2023-03-07T01:14:05.944Z,12.50
2023-03-07T01:16:37.695Z,12.00
2023-03-07T01:19:08.222Z,12.25
2023-03-07T01:21:40.193Z,12.25
2023-03-07T01:24:12.765Z,12.25
2023-03-07T01:26:39.824Z,8.50
2023-03-07T01:29:08.358Z,11.50
2023-03-07T01:31:36.526Z,10.75
2023-03-07T01:34:05.644Z,10.00
2023-03-07T01:36:37.462Z,12.00
2023-03-07T01:39:08.430Z,12.00
2023-03-07T01:41:38.304Z,11.75
2023-03-07T01:44:16.618Z,12.25
2023-03-07T01:46:48.310Z,10.25
2023-03-07T01:49:23.294Z,13.75
2023-03-07T01:52:03.571Z,12.25
2023-03-07T01:54:37.614Z,12.25
2023-03-07T01:57:06.138Z,12.25
2023-03-07T01:59:40.384Z,12.25
2023-03-07T02:02:13.662Z,12.25
2023-03-07T02:04:49.330Z,9.00
2023-03-07T02:07:22.235Z,12.25
2023-03-07T02:09:52.088Z,13.50
2023-03-07T02:12:18.981Z,13.00
2023-03-07T02:14:49.147Z,13.25
2023-03-07T02:17:18.756Z,12.25
2023-03-07T02:20:11.334Z,13.50
2023-03-07T02:22:40.621Z,12.50
2023-03-07T02:25:19.107Z,11.75
2023-03-07T02:27:53.285Z,13.25
2023-03-07T02:30:22.081Z,9.00
2023-03-07T02:32:51.664Z,12.25
2023-03-07T02:35:23.633Z,14.75
2023-03-07T02:37:59.695Z,11.00
2023-03-07T02:40:31.302Z,14.25
2023-03-07T02:43:04.068Z,11.50
2023-03-07T02:45:31.888Z,12.50
2023-03-07T02:47:58.711Z,13.50
2023-03-07T02:50:25.661Z,14.25
2023-03-07T02:52:53.678Z,15.75
2023-03-07T02:55:20.595Z,13.75
2023-03-07T02:57:53.735Z,12.75
2023-03-07T03:00:22.971Z,14.50
2023-03-07T03:02:50.258Z,10.75
2023-03-07T03:05:19.763Z,13.00
2023-03-07T03:07:46.565Z,13.25
2023-03-07T03:10:13.465Z,13.75
2023-03-07T03:12:40.974Z,14.50
2023-03-07T03:15:09.491Z,13.25
2023-03-07T03:17:38.636Z,12.00
2023-03-07T03:20:07.748Z,5.75
2023-03-07T03:22:36.000Z,12.25
2023-03-07T03:25:06.897Z,13.75
2023-03-07T03:27:34.364Z,13.75
2023-03-07T03:30:01.364Z,13.00
2023-03-07T03:32:30.450Z,14.00
2023-03-07T03:34:59.174Z,12.75
2023-03-07T03:37:26.273Z,12.50
2023-03-07T03:39:54.151Z,13.50
2023-03-07T03:42:21.257Z,12.00
2023-03-07T03:44:48.386Z,13.00
2023-03-07T03:47:15.608Z,14.75
2023-03-07T03:49:42.696Z,14.25
2023-03-07T03:52:11.731Z,12.75
2023-03-07T03:54:38.504Z,12.00
2023-03-07T03:57:05.620Z,12.25
2023-03-07T03:59:32.630Z,12.75
2023-03-07T04:01:59.725Z,13.75
2023-03-07T04:04:26.576Z,13.25
2023-03-07T04:07:26.396Z,12.50
2023-03-07T04:09:53.402Z,12.75
2023-03-07T04:12:20.596Z,13.25
2023-03-07T04:14:47.517Z,13.50
2023-03-07T04:17:14.629Z,13.00
2023-03-07T04:19:41.537Z,15.75
2023-03-07T04:22:10.041Z,12.75
2023-03-07T04:24:40.090Z,14.00
2023-03-07T04:27:07.686Z,12.25
2023-03-07T04:29:36.201Z,12.25
2023-03-07T04:32:12.089Z,11.50
2023-03-07T04:34:39.373Z,12.50
2023-03-07T04:37:06.422Z,12.50
2023-03-07T04:39:33.293Z,10.75
2023-03-07T04:42:01.703Z,14.50
2023-03-07T04:44:34.256Z,11.00
2023-03-07T04:47:01.154Z,12.00
2023-03-07T04:49:28.692Z,11.75
2023-03-07T04:51:55.542Z,18.50
2023-03-07T04:54:22.542Z,8.00
2023-03-07T04:56:50.564Z,12.25
2023-03-07T04:59:21.316Z,11.50
2023-03-07T05:01:49.310Z,10.25
2023-03-07T05:04:16.394Z,13.75
2023-03-07T05:06:44.029Z,10.00
2023-03-07T05:09:11.971Z,12.00
2023-03-07T05:11:39.353Z,10.00
2023-03-07T05:14:07.791Z,12.50
2023-03-07T05:16:36.039Z,8.00
2023-03-07T05:19:05.988Z,12.00
2023-03-07T05:21:33.358Z,12.75
2023-03-07T05:24:00.698Z,12.00
2023-03-07T05:26:28.761Z,12.75
2023-03-07T05:28:55.602Z,14.50
2023-03-07T05:31:22.716Z,15.00
2023-03-07T05:33:51.574Z,11.00
2023-03-07T05:36:18.603Z,10.25
2023-03-07T05:38:45.585Z,12.00
2023-03-07T05:41:12.946Z,12.50
2023-03-07T05:43:40.143Z,12.25
2023-03-07T05:46:07.435Z,11.00
2023-03-07T05:48:34.660Z,13.00
2023-03-07T05:51:02.944Z,12.00
2023-03-07T05:53:30.506Z,11.50
2023-03-07T05:55:57.718Z,15.25
2023-03-07T05:58:24.801Z,12.00
2023-03-07T06:00:51.763Z,11.00
2023-03-07T06:03:19.815Z,10.25
2023-03-07T06:05:49.145Z,10.00
2023-03-07T06:08:17.499Z,10.25
2023-03-07T06:10:44.444Z,13.00
2023-03-07T06:13:17.755Z,12.75
2023-03-07T06:15:44.617Z,16.50
2023-03-07T06:18:13.047Z,15.50
2023-03-07T06:20:40.198Z,15.25
2023-03-07T06:23:07.125Z,15.75
2023-03-07T06:25:38.035Z,14.00
2023-03-07T06:28:05.783Z,10.75
2023-03-07T06:30:33.132Z,10.50
2023-03-07T06:33:00.228Z,9.50
2023-03-07T06:35:27.038Z,18.50
2023-03-07T06:37:54.326Z,14.25
2023-03-07T06:40:21.189Z,17.00
2023-03-07T06:42:51.375Z,12.75
2023-03-07T06:45:18.859Z,12.50
2023-03-07T06:47:45.719Z,13.25
2023-03-07T06:50:13.187Z,15.00
2023-03-07T06:52:40.920Z,13.00
2023-03-07T06:55:09.482Z,9.25
2023-03-07T06:57:36.789Z,14.00
2023-03-07T07:00:07.554Z,15.50
2023-03-07T07:02:34.890Z,15.75
2023-03-07T07:05:01.692Z,17.00
2023-03-07T07:07:29.779Z,21.67
2023-03-07T07:09:57.544Z,20.25
2023-03-07T07:12:24.488Z,12.00
2023-03-07T07:14:51.314Z,20.33
2023-03-07T07:17:19.796Z,16.00
2023-03-07T07:19:47.564Z,13.50
2023-03-07T07:22:16.117Z,23.00
2023-03-07T07:24:42.946Z,12.50
2023-03-07T07:27:12.565Z,12.75
2023-03-07T07:29:39.747Z,10.75
2023-03-07T07:32:09.206Z,11.00
2023-03-07T07:34:37.523Z,11.75
2023-03-07T07:37:04.851Z,10.00
2023-03-07T07:39:32.226Z,8.25
2023-03-07T07:41:59.307Z,11.25
2023-03-07T07:44:30.127Z,10.75
2023-03-07T07:46:59.146Z,10.75
2023-03-07T07:49:27.143Z,7.00
2023-03-07T07:51:55.700Z,11.50
2023-03-07T07:54:22.825Z,9.25
2023-03-07T07:56:50.487Z,11.75
2023-03-07T07:59:18.165Z,9.00
2023-03-07T08:01:46.945Z,4.00
2023-03-07T08:04:13.820Z,8.50
2023-03-07T08:06:40.684Z,10.75
2023-03-07T08:09:09.152Z,8.25
2023-03-07T08:11:35.932Z,0.00
2023-03-07T08:14:03.132Z,7.00
2023-03-07T08:16:30.216Z,6.25
2023-03-07T08:18:58.172Z,3.75
2023-03-07T08:21:26.362Z,4.50
2023-03-07T08:23:54.406Z,4.00
2023-03-07T08:26:24.332Z,10.75
2023-03-07T08:28:51.259Z,8.00
2023-03-07T08:31:22.026Z,4.50
2023-03-07T08:33:49.867Z,4.00
2023-03-07T08:36:17.077Z,9.00
2023-03-07T08:38:44.115Z,6.00
2023-03-07T08:41:11.073Z,8.00
2023-03-07T08:43:41.111Z,6.00
2023-03-07T08:46:08.151Z,7.00
2023-03-07T08:48:35.998Z,5.50
2023-03-07T08:51:08.037Z,8.75
2023-03-07T08:53:35.343Z,8.50
2023-03-07T08:56:07.529Z,4.50
2023-03-07T08:58:34.866Z,4.50
2023-03-07T09:01:05.906Z,4.50
2023-03-07T09:03:32.830Z,5.50
2023-03-07T09:05:59.816Z,4.00
2023-03-07T09:08:28.442Z,3.25
2023-03-07T09:10:55.575Z,2.00
2023-03-07T09:13:22.632Z,5.00
2023-03-07T09:15:49.485Z,6.00
2023-03-07T09:18:17.635Z,3.00
2023-03-07T09:20:44.446Z,4.00
2023-03-07T09:23:11.551Z,2.00
2023-03-07T09:25:38.339Z,4.00
2023-03-07T09:28:05.425Z,4.00
2023-03-07T09:30:32.397Z,4.00
2023-03-07T09:32:59.396Z,5.00
2023-03-07T09:35:28.288Z,0.75
2023-03-07T09:37:55.147Z,3.50
2023-03-07T09:40:26.593Z,4.00
2023-03-07T09:43:05.580Z,0.50
2023-03-07T09:45:49.451Z,4.00
2023-03-07T09:49:03.420Z,3.75
2023-03-07T09:51:39.199Z,6.00
2023-03-07T09:54:13.845Z,6.50
2023-03-07T09:56:50.197Z,6.00
2023-03-07T09:59:29.096Z,8.25
2023-03-07T10:02:12.526Z,3.50
2023-03-07T10:04:52.505Z,3.25
2023-03-07T10:07:27.035Z,4.00
2023-03-07T10:10:00.313Z,3.50
2023-03-07T10:12:58.076Z,6.50
2023-03-07T10:15:45.450Z,3.00
2023-03-07T10:18:41.058Z,3.00
2023-03-07T10:21:23.599Z,3.50
2023-03-07T10:24:14.613Z,3.25
2023-03-07T10:26:54.397Z,6.00
2023-03-07T10:29:29.972Z,5.00
2023-03-07T10:32:17.684Z,1.50
2023-03-07T10:34:46.300Z,4.00
2023-03-07T10:37:19.653Z,6.00
2023-03-07T10:39:52.362Z,6.00
2023-03-07T10:42:24.092Z,6.00
2023-03-07T10:44:52.261Z,5.25
2023-03-07T10:47:22.857Z,2.50
2023-03-07T10:49:56.873Z,5.50
2023-03-07T10:52:34.883Z,7.00
2023-03-07T10:55:37.461Z,4.00
2023-03-07T10:58:21.285Z,3.25
2023-03-07T11:01:03.512Z,4.25
2023-03-07T11:03:52.241Z,3.00
2023-03-07T11:06:31.564Z,5.00
2023-03-07T11:09:16.267Z,4.00
2023-03-07T11:11:52.519Z,5.25
2023-03-07T11:14:19.600Z,5.00
2023-03-07T11:16:55.604Z,7.25
2023-03-07T11:19:36.920Z,3.75
2023-03-07T11:22:16.536Z,4.00
2023-03-07T11:24:51.905Z,3.25
2023-03-07T11:27:31.632Z,0.00
2023-03-07T11:30:18.105Z,4.00
2023-03-07T11:33:10.668Z,3.25
2023-03-07T11:35:56.270Z,3.00
2023-03-07T11:38:38.467Z,5.00
2023-03-07T11:41:13.820Z,1.00
2023-03-07T11:44:05.464Z,6.00
2023-03-07T11:46:58.671Z,4.50
2023-03-07T11:50:13.668Z,3.50
2023-03-07T11:53:08.505Z,9.00
2023-03-07T11:55:44.942Z,4.00
2023-03-07T11:58:35.872Z,3.25
2023-03-07T12:01:20.759Z,3.75
2023-03-07T12:04:31.120Z,1.50
2023-03-07T12:07:18.410Z,7.00
2023-03-07T12:09:56.967Z,3.25
2023-03-07T12:12:52.008Z,2.50
2023-03-07T12:15:34.164Z,1.00
2023-03-07T12:18:29.549Z,4.25
2023-03-07T12:21:18.015Z,0.25
2023-03-07T12:23:52.083Z,2.75
2023-03-07T12:26:28.224Z,3.25
2023-03-07T12:29:06.005Z,3.00
2023-03-07T12:31:40.090Z,3.50
2023-03-07T12:34:20.215Z,3.00
2023-03-07T12:36:56.606Z,4.00
2023-03-07T12:39:36.260Z,3.00
2023-03-07T12:42:13.740Z,4.50
2023-03-07T12:44:49.076Z,4.50
2023-03-07T12:47:25.454Z,4.00
2023-03-07T12:50:02.506Z,3.00
2023-03-07T12:52:42.144Z,4.00
2023-03-07T12:55:23.602Z,1.00
2023-03-07T12:58:06.533Z,3.00
2023-03-07T13:00:41.769Z,3.75
2023-03-07T13:03:19.334Z,3.50
2023-03-07T13:05:48.632Z,6.00
2023-03-07T13:08:23.003Z,5.50
2023-03-07T13:10:50.633Z,3.25
2023-03-07T13:13:55.973Z,3.00
2023-03-07T13:16:43.112Z,1.50
2023-03-07T13:19:52.813Z,4.00
2023-03-07T13:23:11.244Z,4.00
2023-03-07T13:26:05.870Z,6.00
2023-03-07T13:28:50.488Z,4.00
2023-03-07T13:31:40.084Z,3.25
2023-03-07T13:34:48.763Z,4.50
2023-03-07T13:37:54.105Z,9.50
2023-03-07T13:40:50.775Z,3.00
2023-03-07T13:44:02.185Z,4.00
2023-03-07T13:46:47.938Z,6.75
2023-03-07T13:49:45.550Z,3.00
2023-03-07T13:52:24.724Z,7.25
2023-03-07T13:54:52.330Z,3.00
2023-03-07T13:57:29.116Z,3.00
2023-03-07T13:59:57.304Z,3.00
2023-03-07T14:02:24.606Z,4.00
2023-03-07T14:04:55.383Z,4.00
2023-03-07T14:07:27.146Z,3.50
2023-03-07T14:09:58.033Z,4.00
2023-03-07T14:12:48.816Z,3.00
2023-03-07T14:15:31.776Z,4.00
2023-03-07T14:18:22.508Z,4.50
2023-03-07T14:21:01.340Z,4.50
2023-03-07T14:24:12.930Z,4.00
2023-03-07T14:26:44.028Z,1.50
2023-03-07T14:29:18.915Z,1.00
2023-03-07T14:31:47.517Z,3.25
2023-03-07T14:34:26.461Z,1.50
2023-03-07T14:36:57.456Z,4.00
2023-03-07T14:39:36.377Z,4.00
2023-03-07T14:42:21.964Z,3.25
2023-03-07T14:45:14.778Z,5.75
2023-03-07T14:48:03.659Z,4.00
2023-03-07T14:50:32.530Z,0.00
2023-03-07T14:53:05.238Z,4.00
2023-03-07T14:55:39.614Z,7.25
2023-03-07T14:58:07.256Z,6.00
2023-03-07T15:00:35.665Z,3.75
2023-03-07T15:03:05.912Z,3.00
2023-03-07T15:05:36.077Z,5.50
2023-03-07T15:08:03.464Z,2.00
2023-03-07T15:10:41.833Z,1.00
2023-03-07T15:13:23.394Z,3.25
2023-03-07T15:16:00.098Z,6.00
2023-03-07T15:18:33.543Z,3.25
2023-03-07T15:21:03.966Z,4.00
2023-03-07T15:23:31.994Z,4.00
2023-03-07T15:26:03.960Z,6.25
2023-03-07T15:28:35.617Z,3.00
2023-03-07T15:31:04.594Z,8.00
2023-03-07T15:33:33.313Z,10.50
2023-03-07T15:36:25.467Z,6.50
2023-03-07T15:39:12.371Z,5.00
2023-03-07T15:41:39.180Z,4.50
2023-03-07T15:44:18.021Z,7.75
2023-03-07T15:46:50.318Z,3.25
2023-03-07T15:49:25.561Z,3.50
2023-03-07T15:51:55.631Z,6.25
2023-03-07T15:54:36.066Z,6.00
2023-03-07T15:57:07.341Z,6.00
2023-03-07T15:59:38.491Z,2.50
2023-03-07T16:02:41.408Z,6.00
2023-03-07T16:05:37.234Z,7.00
2023-03-07T16:08:30.737Z,7.00
2023-03-07T16:11:02.140Z,8.50
2023-03-07T16:13:33.681Z,7.50
2023-03-07T16:16:06.349Z,0.00
2023-03-07T16:18:35.196Z,3.50
2023-03-07T16:21:02.597Z,6.25
2023-03-07T16:23:29.895Z,4.00
2023-03-07T16:25:57.532Z,8.00
2023-03-07T16:28:24.823Z,4.50
2023-03-07T16:30:51.630Z,7.25
2023-03-07T16:33:18.776Z,8.00
2023-03-07T16:35:47.113Z,5.50
2023-03-07T16:38:14.026Z,6.50
2023-03-07T16:40:45.214Z,8.00
2023-03-07T16:43:33.260Z,4.50
2023-03-07T16:46:03.926Z,7.00
2023-03-07T16:48:31.128Z,8.50
2023-03-07T16:50:59.744Z,10.25
2023-03-07T16:53:26.602Z,9.00
2023-03-07T16:55:57.697Z,8.25
2023-03-07T16:58:30.966Z,4.00
2023-03-07T17:00:57.967Z,9.00
2023-03-07T17:03:25.442Z,6.50
2023-03-07T17:05:52.969Z,9.25
2023-03-07T17:08:21.203Z,7.25
2023-03-07T17:10:48.105Z,6.75
2023-03-07T17:13:18.463Z,4.50
2023-03-07T17:15:45.436Z,5.50
2023-03-07T17:18:13.498Z,9.75
2023-03-07T17:20:41.110Z,6.75
2023-03-07T17:23:08.609Z,7.00
2023-03-07T17:25:37.107Z,7.50
2023-03-07T17:28:08.406Z,6.25
2023-03-07T17:30:35.877Z,9.50
2023-03-07T17:33:03.085Z,7.00
2023-03-07T17:35:29.979Z,12.00
2023-03-07T17:37:56.997Z,6.75
2023-03-07T17:40:23.967Z,8.50
2023-03-07T17:42:52.681Z,8.25
2023-03-07T17:45:20.508Z,7.25
2023-03-07T17:47:50.561Z,8.00
2023-03-07T17:50:17.601Z,8.75
2023-03-07T17:52:51.962Z,9.75
2023-03-07T17:55:19.881Z,4.00
2023-03-07T17:57:47.014Z,6.75
2023-03-07T18:00:18.170Z,8.50
2023-03-07T18:02:46.845Z,7.50
2023-03-07T18:05:14.122Z,4.00
2023-03-07T18:07:41.592Z,9.00
2023-03-07T18:10:11.435Z,7.75
2023-03-07T18:12:39.543Z,6.25
2023-03-07T18:15:11.414Z,8.00
2023-03-07T18:17:47.807Z,6.75
2023-03-07T18:20:21.077Z,5.00
2023-03-07T18:22:48.916Z,3.75
2023-03-07T18:25:17.625Z,5.50
2023-03-07T18:27:45.835Z,7.00
2023-03-07T18:30:14.624Z,7.00
2023-03-07T18:32:43.064Z,9.75
2023-03-07T18:35:10.978Z,6.75
2023-03-07T18:37:37.919Z,11.00
2023-03-07T18:40:06.282Z,8.00
2023-03-07T18:42:33.256Z,9.00
2023-03-07T18:45:00.444Z,12.00
2023-03-07T18:47:27.325Z,9.00
2023-03-07T18:49:55.718Z,4.75
2023-03-07T18:52:22.523Z,7.25
2023-03-07T18:54:49.619Z,8.25
2023-03-07T18:57:16.872Z,7.75
2023-03-07T18:59:43.793Z,8.25
2023-03-07T19:02:12.739Z,6.00
2023-03-07T19:04:39.577Z,4.00
2023-03-07T19:07:09.297Z,8.25
2023-03-07T19:09:36.258Z,8.50
2023-03-07T19:12:03.428Z,7.75
2023-03-07T19:14:30.902Z,8.00
2023-03-07T19:16:57.779Z,6.50
2023-03-07T19:19:24.692Z,8.00
2023-03-07T19:21:51.530Z,6.50
2023-03-07T19:24:19.760Z,5.00
2023-03-07T19:26:48.563Z,5.00
2023-03-07T19:29:15.533Z,0.00
2023-03-07T19:31:42.861Z,3.75
2023-03-07T19:34:10.423Z,8.00
2023-03-07T19:36:39.460Z,9.00
2023-03-07T19:39:06.387Z,4.00
2023-03-07T19:41:34.629Z,10.00
2023-03-07T19:44:01.597Z,5.50
2023-03-07T19:46:28.668Z,6.75
2023-03-07T19:48:56.129Z,9.75
2023-03-07T19:51:25.619Z,1.00
2023-03-07T19:53:57.115Z,8.50
2023-03-07T19:56:27.203Z,8.00
2023-03-07T19:58:56.884Z,7.00
2023-03-07T20:01:25.500Z,8.00
2023-03-07T20:03:54.066Z,4.00
2023-03-07T20:06:24.274Z,9.00
2023-03-07T20:08:54.682Z,7.50
2023-03-07T20:11:26.394Z,7.25
2023-03-07T20:13:56.877Z,7.00
2023-03-07T20:16:25.194Z,4.00
2023-03-07T20:18:54.230Z,11.00
2023-03-07T20:21:23.182Z,6.00
2023-03-07T20:23:51.218Z,7.00
2023-03-07T20:26:21.451Z,8.50
2023-03-07T20:28:49.117Z,9.00
2023-03-07T20:31:19.560Z,4.25
2023-03-07T20:33:46.901Z,7.25
2023-03-07T20:36:18.162Z,5.50
2023-03-07T20:38:48.867Z,7.50
2023-03-07T20:41:18.859Z,3.00
2023-03-07T20:43:45.928Z,5.00
2023-03-07T20:46:15.984Z,4.00
2023-03-07T20:48:45.241Z,5.75
2023-03-07T20:51:15.317Z,5.50
2023-03-07T20:53:42.452Z,4.00
2023-03-07T20:56:09.300Z,4.75
2023-03-07T20:58:36.314Z,6.75
2023-03-07T21:01:04.510Z,6.00
2023-03-07T21:03:31.537Z,5.00
2023-03-07T21:06:02.165Z,4.75
2023-03-07T21:08:32.662Z,3.25
2023-03-07T21:11:01.246Z,3.75
2023-03-07T21:13:29.758Z,7.00
2023-03-07T21:15:59.881Z,6.75
2023-03-07T21:18:27.625Z,5.50
2023-03-07T21:20:58.038Z,4.50
2023-03-07T21:23:26.657Z,3.00
2023-03-07T21:26:00.515Z,3.00
2023-03-07T21:28:27.700Z,6.00
2023-03-07T21:30:59.861Z,4.75
2023-03-07T21:33:28.152Z,6.00
2023-03-07T21:35:55.379Z,2.00
2023-03-07T21:38:23.042Z,3.00
2023-03-07T21:40:51.281Z,7.75
2023-03-07T21:43:18.161Z,6.00
2023-03-07T21:45:45.183Z,6.00
2023-03-07T21:48:12.518Z,3.75
2023-03-07T21:50:42.307Z,4.00
2023-03-07T21:53:09.546Z,6.50
2023-03-07T21:55:36.605Z,3.00
2023-03-07T21:58:05.530Z,3.25
2023-03-07T22:00:32.820Z,3.25
2023-03-07T22:02:59.912Z,8.00
2023-03-07T22:05:26.836Z,6.25
2023-03-07T22:07:53.723Z,6.25
2023-03-07T22:10:20.618Z,4.00
2023-03-07T22:12:47.485Z,6.00
2023-03-07T22:15:15.787Z,3.25
2023-03-07T22:17:42.852Z,5.00
2023-03-07T22:20:11.723Z,4.00
2023-03-07T22:22:39.116Z,7.00
2023-03-07T22:25:07.526Z,6.75
2023-03-07T22:27:34.414Z,5.00
2023-03-07T22:30:01.276Z,6.00
2023-03-07T22:32:29.767Z,4.00
2023-03-07T22:34:56.967Z,4.25
2023-03-07T22:37:23.874Z,6.00
2023-03-07T22:39:51.347Z,7.25
2023-03-07T22:42:18.248Z,9.00
2023-03-07T22:44:45.140Z,15.00
2023-03-07T22:47:11.973Z,18.50
2023-03-07T22:49:40.412Z,15.25
2023-03-07T22:52:07.575Z,15.00
2023-03-07T22:54:34.332Z,14.50
2023-03-07T22:57:01.430Z,11.50
2023-03-07T22:59:28.294Z,11.00
2023-03-07T23:01:55.238Z,6.00
2023-03-07T23:04:22.133Z,7.75
2023-03-07T23:06:50.518Z,10.25
2023-03-07T23:09:17.663Z,7.75
2023-03-07T23:11:44.460Z,12.75
2023-03-07T23:14:11.235Z,13.25
2023-03-07T23:16:38.353Z,9.00
2023-03-07T23:19:05.739Z,10.75
2023-03-07T23:21:34.139Z,8.00
2023-03-07T23:24:04.062Z,6.75
2023-03-07T23:26:35.240Z,7.25
2023-03-07T23:29:02.969Z,6.75
2023-03-07T23:31:33.349Z,7.00
2023-03-07T23:34:03.458Z,9.75
2023-03-07T23:36:32.221Z,11.50
2023-03-07T23:39:01.740Z,14.50
2023-03-07T23:41:28.665Z,17.25
2023-03-07T23:43:58.497Z,20.25
2023-03-07T23:46:27.736Z,13.50
2023-03-07T23:48:55.408Z,11.50
2023-03-07T23:51:23.354Z,8.25
2023-03-07T23:53:50.287Z,7.25
2023-03-07T23:56:18.564Z,8.00
2023-03-07T23:58:49.647Z,4.00
